Airfield :
LOGIN :

Register | Disclaimer

   EN    FR    IT 

 










Legend :    VFR   Marginal VFR   IFR   Intensive IFR   Very Intensive IFR
Visi :
Ceiling :
>= 8 km
>= 3000ft
5 to 8 km
1000 to 3000 ft
1500m to 5 km
500 to 1000 ft
800 to 1500m
200 to 500 ft
< 800m
< 200 ft
Symbols :   Thunderstorms  Fog  Heavy snow  Heavy precipitations  Wind > 20 kt
SIGMETs :     Misc.  Thunderstorms  Icing  Turbulence  Mountain Waves  Volcanic Ashes






- Airport Elevation : 844 ft
- IATA code : OSR


LKMT - Ostrava-Mosnov

CURRENT METAR :
  • 062330Z 20006KT CAVOK 09/M03 Q1031 NOSIG

EXPIRED METARs :
  • 062300Z 21005KT CAVOK 09/M03 Q1031 NOSIG
  • 062230Z 21005KT 190V250 CAVOK 10/M04 Q1031 NOSIG
  • 062200Z 19004KT CAVOK 11/M04 Q1031 NOSIG
  • 062130Z VRB02KT CAVOK 07/M03 Q1030 NOSIG
  • 062100Z 21004KT 190V260 CAVOK 08/M03 Q1030 NOSIG

TAF TAF LKMT
Valid from the 07 at 00:00 until the 08 at 06:00 UTC


062300Z 0700/0806 21008KT CAVOK
TEMPO 0708/0716 23014G24KT



MET'MAP, your aeronautical weather chart ! - Copyright ORBIFLY December 2007 - Disclaimer

ORBIFLY MET'MAP TEAM :

Programming & Development : Alexandra Zaïnal
Concept & original design : Baudouin d'Aumeries
Assistance for programming : Marc-Olivier Méhu
Technical & hardware support : Manuel Goepfert

Contact : metmap@orbifly.com




SOURCES & CREDITS :

   NOAA